Time;durP1;ratioP1;P1;durP2;ratioP2;P2;SDS_P1;SDS_P2;PMS_P1;PMS_P2;Temp;Humidity;BMP_temperature;BMP_pressure;BME280_temperature;BME280_humidity;BME280_pressure;Samples;Min_cycle;Max_cycle;Signal;HPM_P1;HPM_P2
2023/06/04 00:00:35;;;;;;;10.57;5.07;;;;;;;20.11;nan;99312.59;5026633;28;20490;-80
2023/06/04 00:03:00;;;;;;;9.03;6.27;;;;;;;19.99;nan;99306.78;5028150;28;20229;-79
2023/06/04 00:05:26;;;;;;;8.53;6.20;;;;;;;19.93;nan;99312.78;5027647;28;20465;-80
2023/06/04 00:07:52;;;;;;;6.77;5.97;;;;;;;19.91;nan;99309.44;5027870;28;20626;-80
2023/06/04 00:10:17;;;;;;;6.83;5.70;;;;;;;19.90;nan;99313.09;5029982;28;20351;-80
2023/06/04 00:12:43;;;;;;;6.70;6.10;;;;;;;19.85;nan;99299.44;5038271;28;20280;-80
2023/06/04 00:15:08;;;;;;;6.23;5.63;;;;;;;19.81;nan;99309.56;5036886;28;20219;-79
2023/06/04 00:17:34;;;;;;;7.57;5.67;;;;;;;19.71;nan;99300.91;5028648;28;20219;-79
2023/06/04 00:20:31;;;;;;;7.23;6.10;;;;;;;19.56;nan;99310.50;5032035;28;20236;-79
2023/06/04 00:23:05;;;;;;;7.43;6.00;;;;;;;19.37;nan;99312.44;5030785;28;20208;-79
2023/06/04 00:26:07;;;;;;;7.57;5.80;;;;;;;19.27;nan;99305.59;5029714;28;20476;-79
2023/06/04 00:28:32;;;;;;;7.80;5.93;;;;;;;19.23;nan;99308.56;5032839;28;20463;-80
2023/06/04 00:30:58;;;;;;;7.20;5.93;;;;;;;19.22;nan;99308.72;5021027;28;20495;-78
2023/06/04 00:33:23;;;;;;;8.70;7.03;;;;;;;19.16;nan;99304.88;5026464;28;20218;-79
2023/06/04 00:35:49;;;;;;;6.70;6.10;;;;;;;19.11;nan;99307.19;5025844;28;20216;-80
2023/06/04 00:38:14;;;;;;;9.30;5.63;;;;;;;19.08;nan;99307.50;5022030;28;20211;-80
2023/06/04 00:40:40;;;;;;;9.13;7.43;;;;;;;19.04;nan;99305.31;5026530;28;20245;-79
2023/06/04 00:43:05;;;;;;;9.63;6.07;;;;;;;19.02;nan;99300.16;5027060;28;20212;-80
2023/06/04 00:45:31;;;;;;;6.60;5.43;;;;;;;18.94;nan;99306.28;5023880;28;20221;-80
2023/06/04 00:47:57;;;;;;;8.17;6.30;;;;;;;18.89;nan;99305.06;5025614;28;20374;-80
2023/06/04 00:50:24;;;;;;;7.47;6.47;;;;;;;18.86;nan;99306.22;5025452;28;20482;-80
2023/06/04 00:52:50;;;;;;;7.60;6.80;;;;;;;18.79;nan;99300.72;5023111;28;20467;-80
2023/06/04 00:55:17;;;;;;;11.57;7.73;;;;;;;18.74;nan;99305.69;5023416;28;20462;-80
2023/06/04 00:57:43;;;;;;;6.97;5.60;;;;;;;18.70;nan;99298.94;5022467;28;20508;-80
2023/06/04 01:00:09;;;;;;;6.50;5.73;;;;;;;18.68;nan;99294.78;5022068;28;20541;-80
2023/06/04 01:02:38;;;;;;;7.03;6.33;;;;;;;18.62;nan;99298.91;5023527;28;20204;-79
2023/06/04 01:05:12;;;;;;;7.70;5.88;;;;;;;18.59;nan;99296.56;5032527;28;20489;-80
2023/06/04 01:07:40;;;;;;;10.57;6.53;;;;;;;18.58;nan;99310.88;5026977;28;20484;-80
2023/06/04 01:10:06;;;;;;;6.97;5.73;;;;;;;18.62;nan;99301.56;5034393;28;20968;-80
2023/06/04 01:12:32;;;;;;;7.33;5.53;;;;;;;18.66;nan;99307.41;5031837;28;20464;-80
2023/06/04 01:14:57;;;;;;;5.80;4.90;;;;;;;18.66;nan;99302.06;5032949;28;20466;-80
2023/06/04 01:17:37;;;;;;;5.97;5.03;;;;;;;18.68;nan;99310.75;5033841;28;20222;-80
2023/06/04 01:20:18;;;;;;;7.37;6.43;;;;;;;18.66;nan;99313.56;5029515;28;20412;-80
2023/06/04 01:22:54;;;;;;;6.43;4.70;;;;;;;18.64;nan;99309.41;5032793;28;20466;-80
2023/06/04 01:25:31;;;;;;;8.00;5.47;;;;;;;18.60;nan;99303.53;5031093;28;20474;-80
2023/06/04 01:27:58;;;;;;;6.00;5.40;;;;;;;18.61;nan;99315.03;5027419;28;20575;-79
2023/06/04 01:30:26;;;;;;;6.37;5.70;;;;;;;18.58;nan;99314.34;5028971;28;20478;-79
2023/06/04 01:32:55;;;;;;;7.70;5.73;;;;;;;18.56;nan;99319.00;5029923;28;20501;-79
2023/06/04 01:35:21;;;;;;;7.40;5.60;;;;;;;18.56;nan;99320.81;5027624;28;20506;-79
2023/06/04 01:37:47;;;;;;;7.10;5.30;;;;;;;18.57;nan;99320.66;5036907;28;20473;-79
2023/06/04 01:40:14;;;;;;;5.77;4.93;;;;;;;18.57;nan;99320.66;5034475;28;20470;-80
2023/06/04 01:42:40;;;;;;;7.90;5.37;;;;;;;18.56;nan;99305.69;5033572;28;20210;-79
2023/06/04 01:45:06;;;;;;;5.10;4.47;;;;;;;18.56;nan;99312.84;5023194;28;20996;-80
2023/06/04 01:47:31;;;;;;;5.77;4.67;;;;;;;18.56;nan;99312.84;5033693;28;20489;-79
2023/06/04 01:49:56;;;;;;;8.13;6.07;;;;;;;18.55;nan;99317.31;5032905;28;20225;-80
2023/06/04 01:52:22;;;;;;;6.27;4.40;;;;;;;18.56;nan;99321.66;5034152;28;20227;-79
2023/06/04 01:54:52;;;;;;;7.93;4.80;;;;;;;18.56;nan;99315.50;5030979;28;20233;-79
2023/06/04 01:57:21;;;;;;;6.67;5.97;;;;;;;18.54;nan;99317.47;5032445;28;20486;-79
2023/06/04 01:59:47;;;;;;;5.30;4.80;;;;;;;18.50;nan;99318.78;5031126;28;20975;-79
2023/06/04 02:02:14;;;;;;;11.00;5.00;;;;;;;18.46;nan;99320.06;5033787;28;20478;-79
2023/06/04 02:04:41;;;;;;;5.97;4.53;;;;;;;18.41;nan;99317.88;5032965;28;20449;-79
2023/06/04 02:07:13;;;;;;;9.17;4.80;;;;;;;18.40;nan;99321.53;5032141;28;20221;-79
2023/06/04 02:09:39;;;;;;;6.20;5.20;;;;;;;18.40;nan;99323.38;5032995;28;20498;-80
2023/06/04 02:12:05;;;;;;;6.20;5.60;;;;;;;18.37;nan;99318.34;5029924;28;20457;-79
2023/06/04 02:14:31;;;;;;;9.23;5.77;;;;;;;18.32;nan;99319.63;5029089;28;20990;-79
2023/06/04 02:16:57;;;;;;;7.70;5.17;;;;;;;18.26;nan;99319.44;5028150;28;20506;-79
2023/06/04 02:19:27;;;;;;;6.70;6.00;;;;;;;18.23;nan;99322.41;5025341;28;20230;-79
2023/06/04 02:21:55;;;;;;;5.40;4.90;;;;;;;18.23;nan;99323.22;5027952;28;20520;-79
2023/06/04 02:24:22;;;;;;;5.67;4.80;;;;;;;18.22;nan;99326.88;5029230;28;21111;-79
2023/06/04 02:26:47;;;;;;;6.43;5.13;;;;;;;18.21;nan;99329.69;5028262;28;21071;-79
2023/06/04 02:29:12;;;;;;;6.13;4.93;;;;;;;18.18;nan;99327.34;5030759;28;20459;-79
2023/06/04 02:31:38;;;;;;;7.70;4.93;;;;;;;18.14;nan;99326.78;5028460;28;20248;-79
2023/06/04 02:34:04;;;;;;;6.60;5.53;;;;;;;18.13;nan;99327.78;5027650;28;20533;-78
2023/06/04 02:36:30;;;;;;;6.63;6.03;;;;;;;18.15;nan;99331.16;5029687;28;20207;-79
2023/06/04 02:38:55;;;;;;;7.60;5.70;;;;;;;18.18;nan;99328.16;5027388;28;20552;-79
2023/06/04 02:41:21;;;;;;;6.80;5.27;;;;;;;18.16;nan;99330.13;5024442;28;20966;-79
2023/06/04 02:43:46;;;;;;;7.80;5.40;;;;;;;18.10;nan;99336.91;5026497;28;20214;-78
2023/06/04 02:46:12;;;;;;;6.63;5.03;;;;;;;18.07;nan;99339.03;5027896;28;21082;-79
2023/06/04 02:48:37;;;;;;;5.77;4.40;;;;;;;18.02;nan;99344.81;5029246;28;20224;-79
2023/06/04 02:51:03;;;;;;;6.60;4.90;;;;;;;17.98;nan;99340.75;5026765;28;20232;-78
2023/06/04 02:53:28;;;;;;;8.80;4.77;;;;;;;17.93;nan;99343.06;5027778;28;20355;-79
2023/06/04 02:55:53;;;;;;;5.20;4.70;;;;;;;17.86;nan;99344.66;5030982;28;20696;-78
2023/06/04 02:58:21;;;;;;;6.73;4.60;;;;;;;17.80;nan;99335.47;5028783;28;20269;-79
2023/06/04 03:00:47;;;;;;;6.10;4.30;;;;;;;17.79;nan;99343.56;5028500;28;20772;-79
2023/06/04 03:03:12;;;;;;;6.27;4.60;;;;;;;17.75;nan;99339.53;5026737;28;20445;-78
2023/06/04 03:05:39;;;;;;;7.10;4.83;;;;;;;17.68;nan;99349.91;5027902;28;20222;-79
2023/06/04 03:08:05;;;;;;;6.90;4.30;;;;;;;17.63;nan;99346.84;5026924;28;20226;-78
2023/06/04 03:10:31;;;;;;;5.87;4.37;;;;;;;17.58;nan;99354.44;5028876;28;20488;-79
2023/06/04 03:12:56;;;;;;;5.40;4.30;;;;;;;17.54;nan;99355.72;5027868;28;20237;-79
2023/06/04 03:15:22;;;;;;;9.40;4.30;;;;;;;17.53;nan;99354.06;5027741;28;20587;-79
2023/06/04 03:17:48;;;;;;;6.77;4.50;;;;;;;17.50;nan;99354.34;5025806;28;20464;-79
2023/06/04 03:20:14;;;;;;;4.80;4.40;;;;;;;17.43;nan;99357.59;5025852;28;20486;-78
2023/06/04 03:22:39;;;;;;;7.90;3.90;;;;;;;17.39;nan;99364.19;5023762;28;20771;-79
2023/06/04 03:25:05;;;;;;;6.60;4.07;;;;;;;17.36;nan;99364.50;5027164;28;20792;-79
2023/06/04 03:27:33;;;;;;;7.30;4.30;;;;;;;17.35;nan;99367.28;5025583;28;20705;-79
2023/06/04 03:29:58;;;;;;;3.70;3.33;;;;;;;17.34;nan;99358.47;5025929;28;20475;-78
2023/06/04 03:32:25;;;;;;;6.73;4.67;;;;;;;17.36;nan;99374.25;5028043;28;20545;-79
2023/06/04 03:34:50;;;;;;;6.80;3.95;;;;;;;17.38;nan;99365.16;5026284;28;20466;-79
2023/06/04 03:37:17;;;;;;;4.20;3.80;;;;;;;17.40;nan;99368.50;5027186;28;20809;-78
2023/06/04 03:39:43;;;;;;;6.40;3.67;;;;;;;17.43;nan;99378.81;5026058;28;20476;-79
2023/06/04 03:42:11;;;;;;;6.23;3.73;;;;;;;17.45;nan;99379.53;5025544;28;20458;-79
2023/06/04 03:44:37;;;;;;;6.27;3.70;;;;;;;17.44;nan;99384.97;5025820;28;20454;-79
2023/06/04 03:47:03;;;;;;;4.90;4.27;;;;;;;17.40;nan;99384.44;5024302;28;20549;-79
2023/06/04 03:49:29;;;;;;;4.07;3.43;;;;;;;17.38;nan;99386.41;5025348;28;20482;-78
2023/06/04 03:51:55;;;;;;;6.20;3.10;;;;;;;17.37;nan;99390.03;5024737;28;20219;-79
2023/06/04 03:54:21;;;;;;;6.33;3.87;;;;;;;17.34;nan;99385.03;5024589;28;20237;-78
2023/06/04 03:56:48;;;;;;;10.07;4.33;;;;;;;17.29;nan;99389.09;5024052;28;20459;-79
2023/06/04 03:59:14;;;;;;;5.03;3.20;;;;;;;17.22;nan;99389.66;5024102;28;20511;-78
2023/06/04 04:01:42;;;;;;;5.60;3.83;;;;;;;17.19;nan;99399.75;5022988;28;20573;-79
2023/06/04 04:04:07;;;;;;;5.70;5.20;;;;;;;17.15;nan;99390.41;5023393;28;20559;-78
2023/06/04 04:06:33;;;;;;;5.37;3.30;;;;;;;17.13;nan;99387.06;5023701;28;20494;-78
2023/06/04 04:08:58;;;;;;;6.10;3.57;;;;;;;17.13;nan;99387.06;5023549;28;20224;-78
2023/06/04 04:11:25;;;;;;;5.90;3.33;;;;;;;17.13;nan;99393.19;5024581;28;20223;-78
2023/06/04 04:13:51;;;;;;;3.27;2.97;;;;;;;17.15;nan;99393.06;5023760;28;20649;-78
2023/06/04 04:16:17;;;;;;;4.43;3.30;;;;;;;17.19;nan;99389.13;5024161;28;20487;-78
2023/06/04 04:18:46;;;;;;;5.40;3.30;;;;;;;17.23;nan;99394.00;5022069;28;20466;-79
2023/06/04 04:21:11;;;;;;;3.03;2.77;;;;;;;17.30;nan;99394.25;5022872;28;20228;-78
2023/06/04 04:23:42;;;;;;;4.63;2.70;;;;;;;17.35;nan;99402.63;5022513;28;20468;-79
2023/06/04 04:26:09;;;;;;;5.27;4.10;;;;;;;17.41;nan;99398.53;5023710;28;20459;-79
2023/06/04 04:28:35;;;;;;;6.97;4.27;;;;;;;17.40;nan;99397.72;5023854;28;20522;-79
2023/06/04 04:31:02;;;;;;;5.73;3.37;;;;;;;17.39;nan;99409.31;5023838;28;20499;-78
2023/06/04 04:33:32;;;;;;;9.20;3.70;;;;;;;17.39;nan;99411.97;5022339;28;20210;-79
2023/06/04 04:36:01;;;;;;;3.83;2.97;;;;;;;17.41;nan;99402.03;5023462;28;20835;-79
2023/06/04 04:38:28;;;;;;;5.10;3.20;;;;;;;17.43;nan;99405.38;5033332;28;20827;-79
2023/06/04 04:41:00;;;;;;;3.70;3.03;;;;;;;17.42;nan;99409.03;5023212;28;20487;-79
2023/06/04 04:43:33;;;;;;;5.10;4.00;;;;;;;17.42;nan;99398.41;5024343;28;20457;-79
2023/06/04 04:46:08;;;;;;;3.90;3.10;;;;;;;17.43;nan;99409.84;5022920;28;20460;-79
2023/06/04 04:48:34;;;;;;;3.33;3.03;;;;;;;17.43;nan;99402.72;5024076;28;20480;-79
2023/06/04 04:50:59;;;;;;;3.00;2.70;;;;;;;17.42;nan;99409.03;5021785;28;20838;-79
2023/06/04 04:53:26;;;;;;;6.37;3.20;;;;;;;17.46;nan;99406.91;5023995;28;20216;-79
2023/06/04 04:55:52;;;;;;;4.90;3.60;;;;;;;17.47;nan;99409.44;5023429;28;20276;-79
2023/06/04 04:58:17;;;;;;;4.57;2.70;;;;;;;17.51;nan;99407.31;5021692;28;20728;-79
2023/06/04 05:00:43;;;;;;;3.10;2.80;;;;;;;17.57;nan;99408.53;5022649;28;20235;-79
2023/06/04 05:03:09;;;;;;;3.50;3.00;;;;;;;17.64;nan;99406.97;5016611;28;20243;-78
2023/06/04 05:05:34;;;;;;;5.93;3.63;;;;;;;17.68;nan;99416.31;5022260;28;20953;-78
2023/06/04 05:08:02;;;;;;;4.47;3.63;;;;;;;17.74;nan;99414.88;5021092;28;20871;-78
2023/06/04 05:10:33;;;;;;;4.40;3.10;;;;;;;17.82;nan;99413.19;5023444;28;20473;-79
2023/06/04 05:13:00;;;;;;;4.97;3.67;;;;;;;17.96;nan;99416.31;5026323;28;20454;-79
2023/06/04 05:15:33;;;;;;;3.60;3.30;;;;;;;18.15;nan;99426.84;5045246;28;20503;-79
2023/06/04 05:18:00;;;;;;;5.20;3.57;;;;;;;18.55;nan;99429.03;5027559;28;20918;-79
2023/06/04 05:20:29;;;;;;;4.43;3.90;;;;;;;19.15;nan;99431.00;5028028;28;20239;-79
2023/06/04 05:22:55;;;;;;;3.83;3.40;;;;;;;19.65;nan;99430.25;5028558;28;20497;-79
2023/06/04 05:25:21;;;;;;;5.80;2.97;;;;;;;20.11;nan;99436.09;5029151;28;20485;-79
2023/06/04 05:27:49;;;;;;;6.40;2.93;;;;;;;20.67;nan;99432.88;5028897;28;20504;-79
2023/06/04 05:30:15;;;;;;;4.47;3.50;;;;;;;21.22;nan;99432.13;5027535;28;20471;-79
2023/06/04 05:32:40;;;;;;;4.80;2.97;;;;;;;21.59;nan;99430.72;5031454;28;20694;-78
2023/06/04 05:35:09;;;;;;;3.40;2.70;;;;;;;21.83;nan;99440.50;5026653;28;20856;-79
2023/06/04 05:37:37;;;;;;;3.87;2.63;;;;;;;22.16;nan;99441.13;5027261;28;20216;-79
2023/06/04 05:40:05;;;;;;;2.77;2.57;;;;;;;22.53;nan;99439.59;5039319;28;20454;-79
2023/06/04 05:42:32;;;;;;;4.33;4.00;;;;;;;22.94;nan;99440.06;5026621;28;20459;-79
2023/06/04 05:44:58;;;;;;;3.27;2.97;;;;;;;23.34;nan;99445.25;5028804;28;20506;-80
2023/06/04 05:47:23;;;;;;;4.23;3.30;;;;;;;23.67;nan;99445.69;5027583;28;20448;-79
2023/06/04 05:49:49;;;;;;;6.17;3.70;;;;;;;23.93;nan;99445.25;5028942;28;20221;-80
2023/06/04 05:52:14;;;;;;;3.53;3.23;;;;;;;24.22;nan;99451.53;5028765;28;20216;-80
2023/06/04 05:54:41;;;;;;;9.07;3.37;;;;;;;24.36;nan;99455.19;5029492;28;20199;-79
2023/06/04 05:57:07;;;;;;;3.23;2.93;;;;;;;24.44;nan;99442.53;5028989;28;20429;-79
2023/06/04 05:59:32;;;;;;;4.17;2.83;;;;;;;24.66;nan;99445.22;5026726;28;20642;-79
2023/06/04 06:01:59;;;;;;;3.47;3.17;;;;;;;24.84;nan;99440.19;5038792;28;20203;-79
2023/06/04 06:04:25;;;;;;;4.47;2.90;;;;;;;25.03;nan;99453.97;5027553;28;20449;-80
2023/06/04 06:06:52;;;;;;;4.40;2.83;;;;;;;25.06;nan;99448.22;5028496;28;21009;-80
2023/06/04 06:09:18;;;;;;;6.97;3.40;;;;;;;25.09;nan;99455.91;5025723;28;20467;-79
2023/06/04 06:11:43;;;;;;;4.50;3.00;;;;;;;25.04;nan;99452.97;5023396;28;20199;-79
2023/06/04 06:14:09;;;;;;;5.10;3.30;;;;;;;25.04;nan;99450.28;5022787;28;20464;-79
2023/06/04 06:16:34;;;;;;;4.40;2.90;;;;;;;25.15;nan;99455.16;5022685;28;20216;-79
2023/06/04 06:19:01;;;;;;;4.20;2.70;;;;;;;25.22;nan;99456.03;5021074;28;20204;-80
2023/06/04 06:21:27;;;;;;;7.97;3.43;;;;;;;25.22;nan;99455.19;5025514;28;20695;-80
2023/06/04 06:23:53;;;;;;;3.27;2.97;;;;;;;25.45;nan;99460.31;5042219;28;20430;-80
2023/06/04 06:26:19;;;;;;;5.60;2.83;;;;;;;25.51;nan;99460.34;5030657;28;20502;-80
2023/06/04 06:28:48;;;;;;;4.40;3.17;;;;;;;25.07;nan;99468.72;5027199;28;20797;-80
2023/06/04 06:31:15;;;;;;;3.03;2.73;;;;;;;24.43;nan;99475.72;5036934;28;20896;-80
2023/06/04 06:33:40;;;;;;;6.60;2.90;;;;;;;23.90;nan;99477.81;5028184;28;20437;-80
2023/06/04 06:36:07;;;;;;;3.83;3.20;;;;;;;23.60;nan;99482.31;5027325;28;20449;-79
2023/06/04 06:38:33;;;;;;;3.73;3.17;;;;;;;23.52;nan;99485.09;5028727;28;20226;-80
2023/06/04 06:40:58;;;;;;;3.90;2.90;;;;;;;23.77;nan;99475.78;5026974;28;20484;-80
2023/06/04 06:43:24;;;;;;;4.57;3.03;;;;;;;24.14;nan;99484.72;5029204;28;20208;-80
2023/06/04 06:45:49;;;;;;;4.37;3.00;;;;;;;24.48;nan;99484.06;5027941;28;20219;-80
2023/06/04 06:48:14;;;;;;;3.87;3.00;;;;;;;24.92;nan;99482.22;5027843;28;20267;-80
2023/06/04 06:50:40;;;;;;;4.80;2.73;;;;;;;25.30;nan;99481.91;5027345;28;20202;-79
2023/06/04 06:53:05;;;;;;;2.97;2.40;;;;;;;25.55;nan;99487.69;5027942;28;20202;-80
2023/06/04 06:55:30;;;;;;;3.80;3.40;;;;;;;25.95;nan;99478.00;5025940;28;20196;-78
2023/06/04 06:57:56;;;;;;;6.10;2.43;;;;;;;26.25;nan;99483.91;5026003;28;20206;-78
2023/06/04 07:00:21;;;;;;;4.77;2.70;;;;;;;26.59;nan;99474.06;5025361;28;20215;-78
2023/06/04 07:02:47;;;;;;;5.00;2.97;;;;;;;26.88;nan;99480.09;5027609;28;20377;-78
2023/06/04 07:05:15;;;;;;;3.50;3.20;;;;;;;27.05;nan;99478.63;5028570;28;20260;-78
2023/06/04 07:07:41;;;;;;;3.73;2.60;;;;;;;27.26;nan;99480.31;5028744;28;20221;-78
2023/06/04 07:10:10;;;;;;;2.67;2.43;;;;;;;27.25;nan;99475.16;5027976;28;20593;-78
2023/06/04 07:12:35;;;;;;;7.87;3.20;;;;;;;27.00;nan;99480.31;5027593;28;20453;-80
2023/06/04 07:15:01;;;;;;;3.47;2.87;;;;;;;26.62;nan;99479.03;5026179;28;20468;-80
2023/06/04 07:17:26;;;;;;;3.60;2.73;;;;;;;26.23;nan;99485.97;5025490;28;20211;-80
2023/06/04 07:19:51;;;;;;;3.70;2.87;;;;;;;25.92;nan;99486.44;5026965;28;20211;-80
2023/06/04 07:22:17;;;;;;;4.87;3.00;;;;;;;25.53;nan;99478.97;5027412;28;20295;-80
2023/06/04 07:24:42;;;;;;;3.97;3.53;;;;;;;25.11;nan;99480.72;5025742;28;20240;-80
2023/06/04 07:27:12;;;;;;;3.77;2.60;;;;;;;24.78;nan;99489.31;5023767;28;20218;-80
2023/06/04 07:29:38;;;;;;;3.30;2.77;;;;;;;24.43;nan;99496.38;5023987;28;20215;-80
2023/06/04 07:32:03;;;;;;;7.13;3.07;;;;;;;23.90;nan;99498.41;5024651;28;20694;-80
2023/06/04 07:34:28;;;;;;;2.93;2.57;;;;;;;23.44;nan;99507.47;5025206;28;20489;-80
2023/06/04 07:36:54;;;;;;;2.90;2.60;;;;;;;23.05;nan;99503.13;5030178;28;20699;-80
2023/06/04 07:39:19;;;;;;;6.27;2.93;;;;;;;22.72;nan;99507.91;5029194;28;20214;-80
2023/06/04 07:41:45;;;;;;;3.30;2.60;;;;;;;22.35;nan;99508.63;5026037;28;20230;-79
2023/06/04 07:44:10;;;;;;;3.73;3.43;;;;;;;21.99;nan;99509.94;5027350;28;20707;-79
2023/06/04 07:46:35;;;;;;;5.00;2.90;;;;;;;21.64;nan;99508.56;5029539;28;20229;-79
2023/06/04 07:49:01;;;;;;;3.27;2.67;;;;;;;21.31;nan;99507.78;5028324;28;20243;-79
2023/06/04 07:51:26;;;;;;;2.73;2.47;;;;;;;21.04;nan;99516.97;5027314;28;20223;-79
2023/06/04 07:53:51;;;;;;;6.47;2.70;;;;;;;20.84;nan;99519.13;5028145;28;20226;-80
2023/06/04 07:56:17;;;;;;;4.90;3.27;;;;;;;20.72;nan;99523.97;5026256;28;20318;-80
2023/06/04 07:58:43;;;;;;;2.67;2.27;;;;;;;20.63;nan;99524.94;5027963;28;20211;-79
2023/06/04 08:01:09;;;;;;;2.80;2.10;;;;;;;20.54;nan;99527.59;5026936;28;20266;-78
2023/06/04 08:03:35;;;;;;;3.40;2.77;;;;;;;20.45;nan;99519.72;5029200;28;20472;-79
2023/06/04 08:06:01;;;;;;;4.33;2.43;;;;;;;20.32;nan;99530.84;5025773;28;20224;-78
2023/06/04 08:08:27;;;;;;;3.10;2.63;;;;;;;20.17;nan;99530.66;5027541;28;20493;-78
2023/06/04 08:10:52;;;;;;;2.63;2.30;;;;;;;20.02;nan;99537.56;5030238;28;20715;-79
2023/06/04 08:13:18;;;;;;;5.10;2.60;;;;;;;19.85;nan;99534.00;5030783;28;20208;-79
2023/06/04 08:15:43;;;;;;;4.40;3.00;;;;;;;19.66;nan;99530.56;5029436;28;20220;-79
2023/06/04 08:18:09;;;;;;;4.03;2.67;;;;;;;19.55;nan;99528.16;5027875;28;20193;-79
2023/06/04 08:20:35;;;;;;;5.13;3.10;;;;;;;19.44;nan;99526.56;5024605;28;20230;-78
2023/06/04 08:23:01;;;;;;;4.03;2.83;;;;;;;19.31;nan;99534.13;5024599;28;20467;-78
2023/06/04 08:25:27;;;;;;;4.73;3.60;;;;;;;19.24;nan;99530.41;5024831;28;20239;-78
2023/06/04 08:27:52;;;;;;;3.80;2.87;;;;;;;19.16;nan;99528.53;5026215;28;20484;-77
2023/06/04 08:30:18;;;;;;;8.30;3.70;;;;;;;19.03;nan;99538.72;5023749;28;20220;-78
2023/06/04 08:32:43;;;;;;;4.77;3.37;;;;;;;18.87;nan;99535.94;5026009;28;20981;-78
2023/06/04 08:35:09;;;;;;;4.07;3.20;;;;;;;18.77;nan;99531.53;5026721;28;20913;-78
2023/06/04 08:37:35;;;;;;;3.53;3.10;;;;;;;18.73;nan;99537.28;5027519;28;20605;-78
2023/06/04 08:40:00;;;;;;;2.93;2.70;;;;;;;18.69;nan;99536.75;5026779;28;20728;-78
2023/06/04 08:42:30;;;;;;;3.37;2.20;;;;;;;18.69;nan;99531.41;5027121;28;20474;-78
2023/06/04 08:44:57;;;;;;;4.27;2.83;;;;;;;18.70;nan;99533.09;5026184;28;20221;-78
2023/06/04 08:47:26;;;;;;;3.37;2.60;;;;;;;18.69;nan;99544.72;5030622;28;20569;-77
2023/06/04 08:49:52;;;;;;;7.20;3.40;;;;;;;18.60;nan;99540.28;5029177;28;20467;-78
2023/06/04 08:52:21;;;;;;;4.67;3.00;;;;;;;18.54;nan;99535.59;5031870;28;20473;-78
2023/06/04 08:54:49;;;;;;;4.70;4.07;;;;;;;18.47;nan;99532.69;5028510;28;20484;-77
2023/06/04 08:57:15;;;;;;;3.70;3.30;;;;;;;18.42;nan;99534.97;5029494;28;20485;-78
2023/06/04 08:59:41;;;;;;;3.80;2.77;;;;;;;18.35;nan;99534.72;5028747;28;20942;-78
2023/06/04 09:02:08;;;;;;;3.60;3.30;;;;;;;18.31;nan;99533.34;5028298;28;20476;-77
2023/06/04 09:04:33;;;;;;;4.50;2.87;;;;;;;18.29;nan;99526.50;5027157;28;20639;-78
2023/06/04 09:07:02;;;;;;;2.70;2.37;;;;;;;18.31;nan;99530.69;5028646;28;21152;-78
2023/06/04 09:09:29;;;;;;;3.30;2.40;;;;;;;18.38;nan;99532.75;5028826;28;20774;-77
2023/06/04 09:11:59;;;;;;;3.60;2.53;;;;;;;18.42;nan;99534.97;5030341;28;20460;-78
2023/06/04 09:14:26;;;;;;;4.57;2.80;;;;;;;18.48;nan;99531.72;5028969;28;20951;-77
2023/06/04 09:16:54;;;;;;;3.80;3.00;;;;;;;18.52;nan;99535.75;5029250;28;20803;-77
2023/06/04 09:19:21;;;;;;;3.33;3.00;;;;;;;18.47;nan;99527.38;5027621;28;20955;-78
2023/06/04 09:21:50;;;;;;;2.53;2.20;;;;;;;18.42;nan;99531.47;5027973;28;20573;-79
2023/06/04 09:24:16;;;;;;;10.70;3.30;;;;;;;18.39;nan;99529.09;5027786;28;20583;-78
2023/06/04 09:26:41;;;;;;;4.23;3.03;;;;;;;18.41;nan;99537.78;5026699;28;20516;-79
2023/06/04 09:29:06;;;;;;;5.03;3.33;;;;;;;18.42;nan;99534.97;5026680;28;20582;-78
2023/06/04 09:31:39;;;;;;;2.90;2.37;;;;;;;18.44;nan;99537.47;5024581;28;20223;-77
2023/06/04 09:34:05;;;;;;;4.70;4.30;;;;;;;18.43;nan;99544.59;5026493;28;20244;-77
2023/06/04 09:36:35;;;;;;;4.47;3.50;;;;;;;18.51;nan;99538.53;5025042;28;20790;-78
2023/06/04 09:39:14;;;;;;;5.57;3.10;;;;;;;18.46;nan;99536.31;5024591;28;21589;-77
2023/06/04 09:41:40;;;;;;;5.00;2.87;;;;;;;18.42;nan;99534.13;5033403;28;20480;-77
2023/06/04 09:44:06;;;;;;;5.67;3.30;;;;;;;18.40;nan;99536.94;5027761;28;20697;-78
2023/06/04 09:46:31;;;;;;;4.10;3.70;;;;;;;18.32;nan;99535.03;5030881;28;20309;-78
2023/06/04 09:49:02;;;;;;;4.20;3.17;;;;;;;18.27;nan;99537.28;5027652;28;20571;-79
2023/06/04 09:51:28;;;;;;;3.40;2.87;;;;;;;18.24;nan;99542.06;5023766;28;20221;-78
2023/06/04 09:53:55;;;;;;;4.73;4.00;;;;;;;18.18;nan;99542.69;5025544;28;20462;-78
2023/06/04 09:56:21;;;;;;;5.63;3.57;;;;;;;18.21;nan;99537.06;5026576;28;20969;-78
2023/06/04 09:58:49;;;;;;;4.27;3.37;;;;;;;18.24;nan;99540.25;5025598;28;20601;-78
2023/06/04 10:01:15;;;;;;;6.20;3.97;;;;;;;18.31;nan;99538.69;5028843;28;20230;-79
2023/06/04 10:03:48;;;;;;;5.23;3.90;;;;;;;18.41;nan;99533.28;5033633;28;20495;-79
2023/06/04 10:06:16;;;;;;;4.40;4.00;;;;;;;18.51;nan;99533.22;5033058;28;20420;-79
2023/06/04 10:08:45;;;;;;;4.37;3.97;;;;;;;18.52;nan;99530.44;5030019;28;20215;-78
2023/06/04 10:11:13;;;;;;;5.33;3.53;;;;;;;18.57;nan;99533.44;5030308;28;20476;-79
2023/06/04 10:14:02;;;;;;;5.20;4.27;;;;;;;18.65;nan;99538.03;5030617;28;20597;-79
2023/06/04 10:16:30;;;;;;;5.60;4.40;;;;;;;18.71;nan;99540.09;5028914;28;20460;-79
2023/06/04 10:18:56;;;;;;;5.07;3.70;;;;;;;18.79;nan;99544.66;5031271;28;20487;-79
2023/06/04 10:21:23;;;;;;;5.03;4.53;;;;;;;18.88;nan;99545.59;5022120;28;20885;-78
2023/06/04 10:23:49;;;;;;;6.90;4.63;;;;;;;18.97;nan;99544.69;5021851;28;20532;-79
2023/06/04 10:26:16;;;;;;;5.80;3.53;;;;;;;19.03;nan;99538.72;5023170;28;20443;-79
2023/06/04 10:28:42;;;;;;;4.70;3.97;;;;;;;19.12;nan;99532.50;5026104;28;20501;-79
2023/06/04 10:31:11;;;;;;;6.07;4.00;;;;;;;19.24;nan;99531.25;5023917;28;20511;-79
2023/06/04 10:33:38;;;;;;;4.83;4.40;;;;;;;19.37;nan;99527.34;5034219;28;20889;-78
2023/06/04 10:36:21;;;;;;;6.47;4.60;;;;;;;19.46;nan;99529.91;5022670;28;20428;-79
2023/06/04 10:38:51;;;;;;;4.50;4.07;;;;;;;19.60;nan;99524.97;5024114;28;20970;-79
2023/06/04 10:41:18;;;;;;;4.40;4.00;;;;;;;19.67;nan;99518.06;5023208;28;20488;-79
2023/06/04 10:43:46;;;;;;;5.07;4.50;;;;;;;19.76;nan;99521.59;5024105;28;20521;-79
2023/06/04 10:46:16;;;;;;;5.45;3.95;;;;;;;19.89;nan;99516.69;5025302;28;20460;-78
2023/06/04 10:48:52;;;;;;;5.20;4.17;;;;;;;20.05;nan;99522.06;5025219;28;20462;-78
2023/06/04 10:51:31;;;;;;;5.13;3.67;;;;;;;20.16;nan;99512.94;5020134;28;20471;-78
2023/06/04 10:54:01;;;;;;;4.97;3.83;;;;;;;20.26;nan;99518.16;5017965;28;21075;-79
2023/06/04 10:56:34;;;;;;;6.13;4.90;;;;;;;20.32;nan;99509.50;5018128;28;20465;-78
2023/06/04 10:59:12;;;;;;;4.80;4.17;;;;;;;20.39;nan;99504.34;5018493;28;20463;-79
2023/06/04 11:01:41;;;;;;;6.73;4.43;;;;;;;20.53;nan;99507.25;5017807;28;20944;-79
2023/06/04 11:04:06;;;;;;;8.10;5.43;;;;;;;20.73;nan;99496.25;5019910;28;21063;-79
2023/06/04 11:06:32;;;;;;;5.63;4.00;;;;;;;20.93;nan;99492.28;5018060;28;21163;-79
2023/06/04 11:09:05;;;;;;;5.73;4.50;;;;;;;21.01;nan;99496.78;5018703;28;20210;-79
2023/06/04 11:11:34;;;;;;;5.87;4.23;;;;;;;21.21;nan;99497.25;5018543;28;20954;-79
2023/06/04 11:14:10;;;;;;;9.53;4.53;;;;;;;21.38;nan;99498.91;5020989;28;20465;-79
2023/06/04 11:16:35;;;;;;;5.57;4.50;;;;;;;21.56;nan;99492.56;5018144;28;20815;-79
2023/06/04 11:19:02;;;;;;;6.70;3.93;;;;;;;21.73;nan;99496.00;5020327;28;20968;-79
2023/06/04 11:21:27;;;;;;;7.30;5.00;;;;;;;21.91;nan;99487.75;5020755;28;20268;-78
2023/06/04 11:23:59;;;;;;;5.60;4.53;;;;;;;22.09;nan;99483.00;5020076;28;20481;-79
2023/06/04 11:26:35;;;;;;;8.90;5.27;;;;;;;22.28;nan;99477.22;5022161;28;20228;-79
2023/06/04 11:29:07;;;;;;;7.70;4.83;;;;;;;22.44;nan;99476.31;5024489;28;20560;-79
2023/06/04 11:31:43;;;;;;;6.77;4.70;;;;;;;22.53;nan;99479.75;5026741;28;20476;-79
2023/06/04 11:34:09;;;;;;;6.10;4.20;;;;;;;22.64;nan;99471.28;5028322;28;20518;-79
2023/06/04 11:36:36;;;;;;;4.50;3.90;;;;;;;22.76;nan;99466.34;5026079;28;21316;-80
2023/06/04 11:39:05;;;;;;;7.90;4.73;;;;;;;22.87;nan;99463.25;5025703;28;20492;-79
2023/06/04 11:41:35;;;;;;;5.70;5.03;;;;;;;22.86;nan;99466.09;5026039;28;20946;-79
2023/06/04 11:44:05;;;;;;;6.10;4.53;;;;;;;22.73;nan;99462.19;5026687;28;20463;-79
2023/06/04 11:46:35;;;;;;;5.50;4.93;;;;;;;22.66;nan;99463.94;5026824;28;20447;-79
2023/06/04 11:49:02;;;;;;;6.20;5.40;;;;;;;22.65;nan;99464.91;5027069;28;20503;-80
2023/06/04 11:51:31;;;;;;;8.80;4.83;;;;;;;22.70;nan;99448.31;5026016;28;20747;-80